createdAt,value
2023-04-29T00:00:46.314Z,93908.00
2023-04-29T00:03:15.529Z,93901.00
2023-04-29T00:05:47.304Z,93898.00
2023-04-29T00:08:16.551Z,93895.00
2023-04-29T00:10:43.399Z,93891.00
2023-04-29T00:13:10.355Z,93899.00
2023-04-29T00:15:40.398Z,93888.00
2023-04-29T00:18:09.600Z,93897.00
2023-04-29T00:20:38.869Z,93903.00
2023-04-29T00:23:08.598Z,93899.00
2023-04-29T00:25:40.747Z,93901.00
2023-04-29T00:28:09.680Z,93902.00
2023-04-29T00:30:41.191Z,93899.00
2023-04-29T00:33:10.506Z,93900.00
2023-04-29T00:35:37.500Z,93888.00
2023-04-29T00:38:07.943Z,93891.00
2023-04-29T00:40:39.502Z,93891.00
2023-04-29T00:43:06.423Z,93901.00
2023-04-29T00:45:35.527Z,93888.00
2023-04-29T00:48:04.686Z,93885.00
2023-04-29T00:50:32.174Z,93887.00
2023-04-29T00:53:00.175Z,93892.00
2023-04-29T00:55:28.587Z,93891.00
2023-04-29T00:57:55.988Z,93894.00
2023-04-29T01:00:24.564Z,93891.00
2023-04-29T01:02:57.111Z,93891.00
2023-04-29T01:05:25.155Z,93895.00
2023-04-29T01:08:21.452Z,93888.00
2023-04-29T01:11:14.112Z,93888.00
2023-04-29T01:13:58.883Z,93897.00
2023-04-29T01:16:37.689Z,93891.00
2023-04-29T01:19:47.296Z,93890.00
2023-04-29T01:22:14.702Z,93887.00
2023-04-29T01:24:41.851Z,93890.00
2023-04-29T01:27:53.003Z,93886.00
2023-04-29T01:30:40.463Z,93887.00
2023-04-29T01:33:17.676Z,93881.00
2023-04-29T01:36:19.739Z,93883.00
2023-04-29T01:39:12.026Z,93881.00
2023-04-29T01:41:57.291Z,93882.00
2023-04-29T01:44:28.456Z,93887.00
2023-04-29T01:47:01.719Z,93888.00
2023-04-29T01:49:29.173Z,93885.00
2023-04-29T01:51:58.784Z,93892.00
2023-04-29T01:54:28.300Z,93891.00
2023-04-29T01:56:58.667Z,93886.00
2023-04-29T01:59:25.552Z,93883.00
2023-04-29T02:01:56.618Z,93882.00
2023-04-29T02:04:28.803Z,93878.00
2023-04-29T02:06:58.080Z,93874.00
2023-04-29T02:09:27.959Z,93872.00
2023-04-29T02:11:57.781Z,93881.00
2023-04-29T02:14:27.142Z,93874.00
2023-04-29T02:16:56.518Z,93881.00
2023-04-29T02:19:25.932Z,93873.00
2023-04-29T02:21:52.854Z,93882.00
2023-04-29T02:24:22.155Z,93882.00
2023-04-29T02:26:53.884Z,93877.00
2023-04-29T02:29:20.797Z,93880.00
2023-04-29T02:31:47.689Z,93874.00
2023-04-29T02:34:19.213Z,93887.00
2023-04-29T02:36:46.015Z,93882.00
2023-04-29T02:39:12.850Z,93879.00
2023-04-29T02:41:39.727Z,93876.00
2023-04-29T02:44:07.101Z,93874.00
2023-04-29T02:46:36.052Z,93877.00
2023-04-29T02:49:03.710Z,93876.00
2023-04-29T02:51:30.866Z,93879.00
2023-04-29T02:53:58.606Z,93876.00
2023-04-29T02:56:28.141Z,93874.00
2023-04-29T02:58:55.081Z,93883.00
2023-04-29T03:01:27.256Z,93881.00
2023-04-29T03:03:57.637Z,93879.00
2023-04-29T03:06:27.842Z,93881.00
2023-04-29T03:08:54.740Z,93882.00
2023-04-29T03:11:24.556Z,93877.00
2023-04-29T03:13:51.483Z,93879.00
2023-04-29T03:16:23.203Z,93874.00
2023-04-29T03:18:52.373Z,93873.00
2023-04-29T03:21:25.262Z,93879.00
2023-04-29T03:23:52.107Z,93879.00
2023-04-29T03:26:23.710Z,93869.00
2023-04-29T03:28:53.674Z,93867.00
2023-04-29T03:31:23.392Z,93866.00
2023-04-29T03:33:51.076Z,93861.00
2023-04-29T03:36:20.409Z,93859.00
2023-04-29T03:38:47.282Z,93857.00
2023-04-29T03:41:14.236Z,93856.00
2023-04-29T03:43:45.992Z,93851.00
2023-04-29T03:46:14.971Z,93853.00
2023-04-29T03:48:46.637Z,93849.00
2023-04-29T03:51:13.627Z,93846.00
2023-04-29T03:53:40.883Z,93853.00
2023-04-29T03:56:07.885Z,93854.00
2023-04-29T03:58:34.785Z,93858.00
2023-04-29T04:01:01.654Z,93860.00
2023-04-29T04:03:31.220Z,93857.00
2023-04-29T04:05:58.238Z,93846.00
2023-04-29T04:08:25.113Z,93854.00
2023-04-29T04:10:54.226Z,93852.00
2023-04-29T04:13:21.157Z,93848.00
2023-04-29T04:15:53.661Z,93844.00
2023-04-29T04:18:23.827Z,93851.00
2023-04-29T04:20:53.158Z,93846.00
2023-04-29T04:23:20.025Z,93846.00
2023-04-29T04:25:48.470Z,93863.00
2023-04-29T04:28:15.893Z,93859.00
2023-04-29T04:30:48.774Z,93857.00
2023-04-29T04:33:17.949Z,93868.00
2023-04-29T04:35:44.924Z,93869.00
2023-04-29T04:38:12.508Z,93872.00
2023-04-29T04:40:43.370Z,93878.00
2023-04-29T04:43:12.367Z,93891.00
2023-04-29T04:45:42.328Z,93879.00
2023-04-29T04:48:09.368Z,93873.00
2023-04-29T04:50:38.998Z,93887.00
2023-04-29T04:53:10.501Z,93889.00
2023-04-29T04:55:39.707Z,93888.00
2023-04-29T04:58:06.562Z,93898.00
2023-04-29T05:00:38.985Z,93893.00
2023-04-29T05:03:08.560Z,93885.00
2023-04-29T05:05:35.611Z,93908.00
2023-04-29T05:08:02.418Z,93901.00
2023-04-29T05:10:33.328Z,93902.00
2023-04-29T05:13:02.699Z,93901.00
2023-04-29T05:15:29.717Z,93902.00
2023-04-29T05:17:56.688Z,93908.00
2023-04-29T05:20:23.789Z,93902.00
2023-04-29T05:22:52.948Z,93911.00
2023-04-29T05:25:19.823Z,93911.00
2023-04-29T05:27:46.750Z,93910.00
2023-04-29T05:30:18.431Z,93909.00
2023-04-29T05:32:50.469Z,93916.00
2023-04-29T05:35:19.707Z,93912.00
2023-04-29T05:37:46.652Z,93916.00
2023-04-29T05:40:13.688Z,93913.00
2023-04-29T05:42:45.243Z,93923.00
2023-04-29T05:45:12.626Z,93925.00
2023-04-29T05:47:44.564Z,93924.00
2023-04-29T05:50:11.747Z,93937.00
2023-04-29T05:52:39.223Z,93940.00
2023-04-29T05:55:09.097Z,93947.00
2023-04-29T05:57:36.047Z,93944.00
2023-04-29T06:00:03.930Z,93934.00
2023-04-29T06:02:37.370Z,93934.00
2023-04-29T06:05:07.366Z,93945.00
2023-04-29T06:07:36.642Z,93947.00
2023-04-29T06:10:06.962Z,93947.00
2023-04-29T06:12:36.164Z,93948.00
2023-04-29T06:15:03.229Z,93949.00
2023-04-29T06:17:30.176Z,93946.00
2023-04-29T06:19:57.035Z,93949.00
2023-04-29T06:22:23.991Z,93944.00
2023-04-29T06:24:50.907Z,93958.00
2023-04-29T06:27:25.232Z,93952.00
2023-04-29T06:29:52.224Z,93967.00
2023-04-29T06:32:21.774Z,93967.00
2023-04-29T06:34:51.353Z,93972.00
2023-04-29T06:37:18.256Z,93959.00
2023-04-29T06:39:47.346Z,93959.00
2023-04-29T06:42:14.568Z,93968.00
2023-04-29T06:44:44.510Z,93976.00
2023-04-29T06:47:11.437Z,93970.00
2023-04-29T06:49:38.711Z,93974.00
2023-04-29T06:52:05.721Z,93965.00
2023-04-29T06:54:32.676Z,93965.00
2023-04-29T06:57:02.248Z,93966.00
2023-04-29T06:59:32.901Z,93972.00
2023-04-29T07:02:02.025Z,93971.00
2023-04-29T07:04:34.294Z,93969.00
2023-04-29T07:07:01.132Z,93970.00
2023-04-29T07:09:28.044Z,93972.00
2023-04-29T07:11:55.404Z,93967.00
2023-04-29T07:14:24.956Z,93961.00
2023-04-29T07:16:55.383Z,93969.00
2023-04-29T07:19:22.592Z,93967.00
2023-04-29T07:21:52.624Z,93963.00
2023-04-29T07:24:23.394Z,93961.00
2023-04-29T07:26:50.289Z,93957.00
2023-04-29T07:29:21.694Z,93956.00
2023-04-29T07:31:57.478Z,93957.00
2023-04-29T07:34:24.464Z,93952.00
2023-04-29T07:36:53.884Z,93953.00
2023-04-29T07:39:22.900Z,93952.00
2023-04-29T07:41:52.221Z,93946.00
2023-04-29T07:44:19.132Z,93943.00
2023-04-29T07:46:46.741Z,93944.00
2023-04-29T07:49:13.778Z,93951.00
2023-04-29T07:51:46.185Z,93946.00
2023-04-29T07:54:13.067Z,93953.00
2023-04-29T07:56:39.940Z,93943.00
2023-04-29T07:59:11.859Z,93947.00
2023-04-29T08:01:41.104Z,93942.00
2023-04-29T08:04:08.453Z,93948.00
2023-04-29T08:06:35.887Z,93953.00
2023-04-29T08:09:05.181Z,93951.00
2023-04-29T08:11:32.212Z,93944.00
2023-04-29T08:14:01.355Z,93946.00
2023-04-29T08:16:28.452Z,93957.00
2023-04-29T08:18:56.182Z,93954.00
2023-04-29T08:21:23.511Z,93958.00
2023-04-29T08:23:50.422Z,93947.00
2023-04-29T08:26:19.960Z,93949.00
2023-04-29T08:28:46.955Z,93954.00
2023-04-29T08:31:21.770Z,93949.00
2023-04-29T08:33:51.511Z,93954.00
2023-04-29T08:36:18.493Z,93959.00
2023-04-29T08:38:46.317Z,93955.00
2023-04-29T08:41:15.390Z,93954.00
2023-04-29T08:43:42.321Z,93961.00
2023-04-29T08:46:12.958Z,93959.00
2023-04-29T08:48:44.847Z,93959.00
2023-04-29T08:51:13.686Z,93948.00
2023-04-29T08:53:43.144Z,93951.00
2023-04-29T08:56:17.958Z,93954.00
2023-04-29T08:58:45.284Z,93953.00
2023-04-29T09:01:13.184Z,93955.00
2023-04-29T09:04:11.164Z,93948.00
2023-04-29T09:06:43.486Z,93954.00
2023-04-29T09:09:11.884Z,93955.00
2023-04-29T09:11:38.911Z,93949.00
2023-04-29T09:14:06.577Z,93955.00
2023-04-29T09:16:38.197Z,93944.00
2023-04-29T09:19:05.326Z,93962.00
2023-04-29T09:21:35.479Z,93958.00
2023-04-29T09:24:03.832Z,93952.00
2023-04-29T09:26:49.860Z,93951.00
2023-04-29T09:29:20.894Z,93963.00
2023-04-29T09:31:53.520Z,93971.00
2023-04-29T09:34:33.443Z,93964.00
2023-04-29T09:37:02.898Z,93963.00
2023-04-29T09:39:39.822Z,93963.00
2023-04-29T09:42:07.231Z,93966.00
2023-04-29T09:44:42.385Z,93954.00
2023-04-29T09:47:10.645Z,93964.00
2023-04-29T09:49:43.205Z,93964.00
2023-04-29T09:52:13.357Z,93962.00
2023-04-29T09:54:44.975Z,93955.00
2023-04-29T09:57:15.042Z,93958.00
2023-04-29T09:59:46.812Z,93963.00
2023-04-29T10:02:20.916Z,93953.00
2023-04-29T10:04:57.959Z,93954.00
2023-04-29T10:07:28.107Z,93961.00
2023-04-29T10:09:58.750Z,93964.00
2023-04-29T10:12:28.313Z,93970.00
2023-04-29T10:15:06.822Z,93970.00
2023-04-29T10:17:47.237Z,93965.00
2023-04-29T10:20:25.996Z,93963.00
2023-04-29T10:22:57.959Z,93954.00
2023-04-29T10:25:29.579Z,93966.00
2023-04-29T10:27:56.961Z,93963.00
2023-04-29T10:30:26.488Z,93962.00
2023-04-29T10:32:54.018Z,93966.00
2023-04-29T10:35:25.760Z,93952.00
2023-04-29T10:37:54.042Z,93958.00
2023-04-29T10:40:50.191Z,93956.00
2023-04-29T10:43:23.195Z,93948.00
2023-04-29T10:46:16.239Z,93953.00
2023-04-29T10:48:47.396Z,93952.00
2023-04-29T10:51:29.896Z,93957.00
2023-04-29T10:54:01.641Z,93953.00
2023-04-29T10:56:41.510Z,93946.00
2023-04-29T10:59:17.085Z,93951.00
2023-04-29T11:01:52.222Z,93952.00
2023-04-29T11:04:21.950Z,93949.00
2023-04-29T11:06:57.566Z,93943.00
2023-04-29T11:09:24.479Z,93940.00
2023-04-29T11:12:09.584Z,93926.00
2023-04-29T11:14:37.528Z,93931.00
2023-04-29T11:17:15.973Z,93935.00
2023-04-29T11:19:51.004Z,93934.00
2023-04-29T11:22:27.015Z,93930.00
2023-04-29T11:25:01.944Z,93925.00
2023-04-29T11:27:33.474Z,93934.00
2023-04-29T11:30:04.048Z,93931.00
2023-04-29T11:32:40.432Z,93931.00
2023-04-29T11:35:12.416Z,93931.00
2023-04-29T11:37:41.082Z,93933.00
2023-04-29T11:40:09.009Z,93936.00
2023-04-29T11:42:41.627Z,93933.00
2023-04-29T11:45:09.095Z,93935.00
2023-04-29T11:47:36.058Z,93937.00
2023-04-29T11:50:10.427Z,93932.00
2023-04-29T11:52:40.336Z,93933.00
2023-04-29T11:55:12.880Z,93941.00
2023-04-29T11:57:43.781Z,93941.00
2023-04-29T12:00:14.609Z,93945.00
2023-04-29T12:02:49.173Z,93945.00
2023-04-29T12:05:19.476Z,93948.00
2023-04-29T12:07:50.126Z,93950.00
2023-04-29T12:10:17.248Z,93954.00
2023-04-29T12:12:45.637Z,93944.00
2023-04-29T12:15:18.208Z,93951.00
2023-04-29T12:17:46.539Z,93951.00
2023-04-29T12:20:16.339Z,93938.00
2023-04-29T12:22:44.147Z,93949.00
2023-04-29T12:25:11.360Z,93943.00
2023-04-29T12:27:42.572Z,93940.00
2023-04-29T12:30:12.485Z,93939.00
2023-04-29T12:32:39.656Z,93940.00
2023-04-29T12:35:16.365Z,93942.00
2023-04-29T12:37:43.412Z,93951.00
2023-04-29T12:40:20.319Z,93945.00
2023-04-29T12:42:50.003Z,93951.00
2023-04-29T12:45:46.258Z,93945.00
2023-04-29T12:48:25.294Z,93950.00
2023-04-29T12:50:58.479Z,93954.00
2023-04-29T12:53:26.764Z,93960.00
2023-04-29T12:55:54.172Z,93962.00
2023-04-29T12:58:21.529Z,93958.00
2023-04-29T13:00:54.109Z,93958.00
2023-04-29T13:03:22.255Z,93953.00
2023-04-29T13:05:57.479Z,93941.00
2023-04-29T13:08:27.398Z,93953.00
2023-04-29T13:10:56.873Z,93953.00
2023-04-29T13:13:23.712Z,93949.00
2023-04-29T13:15:50.570Z,93943.00
2023-04-29T13:18:19.512Z,93949.00
2023-04-29T13:20:46.414Z,93949.00
2023-04-29T13:23:13.285Z,93947.00
2023-04-29T13:25:42.695Z,93948.00
2023-04-29T13:28:09.579Z,93951.00
2023-04-29T13:30:38.607Z,93950.00
2023-04-29T13:33:11.754Z,93954.00
2023-04-29T13:35:41.514Z,93943.00
2023-04-29T13:38:11.471Z,93948.00
2023-04-29T13:40:45.326Z,93955.00
2023-04-29T13:43:23.302Z,93956.00
2023-04-29T13:45:58.791Z,93951.00
2023-04-29T13:49:00.702Z,93961.00
2023-04-29T13:54:38.221Z,93960.00
2023-04-29T14:04:03.577Z,93968.00
2023-04-29T14:06:32.277Z,93974.00
2023-04-29T14:09:03.675Z,93970.00
2023-04-29T14:11:31.265Z,93978.00
2023-04-29T14:14:03.112Z,93976.00
2023-04-29T14:16:33.115Z,93977.00
2023-04-29T14:19:02.854Z,93981.00
2023-04-29T14:21:33.845Z,93979.00
2023-04-29T14:24:04.675Z,93976.00
2023-04-29T14:26:32.054Z,93984.00
2023-04-29T14:29:00.375Z,93978.00
2023-04-29T14:31:30.917Z,93982.00
2023-04-29T14:33:59.253Z,93991.00
2023-04-29T14:36:26.733Z,93987.00
2023-04-29T14:38:56.267Z,93987.00
2023-04-29T14:41:23.126Z,93973.00
2023-04-29T14:43:50.143Z,93990.00
2023-04-29T14:46:19.937Z,93996.00
2023-04-29T14:48:46.928Z,93994.00
2023-04-29T14:51:14.220Z,93991.00
2023-04-29T14:53:46.540Z,94003.00
2023-04-29T14:56:13.687Z,93996.00
2023-04-29T14:58:41.439Z,94003.00
2023-04-29T15:01:08.975Z,94000.00
2023-04-29T15:03:43.519Z,94010.00
2023-04-29T15:06:11.985Z,94005.00
2023-04-29T15:08:42.213Z,93999.00
2023-04-29T15:11:11.337Z,94007.00
2023-04-29T15:13:38.348Z,94010.00
2023-04-29T15:16:08.174Z,93997.00
2023-04-29T15:18:35.173Z,93994.00
2023-04-29T15:21:04.797Z,94003.00
2023-04-29T15:23:36.463Z,94004.00
2023-04-29T15:26:07.165Z,94003.00
2023-04-29T15:28:34.105Z,94005.00
2023-04-29T15:31:03.732Z,94008.00
2023-04-29T15:33:36.523Z,94008.00
2023-04-29T15:36:03.831Z,94017.00
2023-04-29T15:38:32.946Z,94010.00
2023-04-29T15:41:01.484Z,94013.00
2023-04-29T15:43:29.482Z,94010.00
2023-04-29T15:45:59.749Z,94008.00
2023-04-29T15:48:31.346Z,94015.00
2023-04-29T15:51:01.252Z,94013.00
2023-04-29T15:53:28.104Z,94014.00
2023-04-29T15:55:57.493Z,94013.00
2023-04-29T15:58:24.408Z,94018.00
2023-04-29T16:00:53.842Z,94018.00
2023-04-29T16:03:23.169Z,94028.00
2023-04-29T16:05:51.228Z,94019.00
2023-04-29T16:08:20.740Z,94025.00
2023-04-29T16:10:52.568Z,94031.00
2023-04-29T16:13:20.323Z,94028.00
2023-04-29T16:15:49.582Z,94023.00
2023-04-29T16:18:17.615Z,94027.00
2023-04-29T16:20:49.587Z,94038.00
2023-04-29T16:23:16.542Z,94038.00
2023-04-29T16:25:45.998Z,94033.00
2023-04-29T16:28:12.831Z,94042.00
2023-04-29T16:30:39.765Z,94037.00
2023-04-29T16:33:06.602Z,94039.00
2023-04-29T16:35:39.087Z,94040.00
2023-04-29T16:38:08.224Z,94046.00
2023-04-29T16:40:35.358Z,94053.00
2023-04-29T16:43:06.790Z,94049.00
2023-04-29T16:45:36.188Z,94054.00
2023-04-29T16:48:03.422Z,94049.00
2023-04-29T16:50:35.997Z,94051.00
2023-04-29T16:53:06.222Z,94056.00
2023-04-29T16:55:33.504Z,94059.00
2023-04-29T16:58:03.556Z,94061.00
2023-04-29T17:00:33.439Z,94071.00
2023-04-29T17:03:04.937Z,94071.00
2023-04-29T17:05:33.226Z,94074.00
2023-04-29T17:08:00.264Z,94083.00
2023-04-29T17:10:29.551Z,94077.00
2023-04-29T17:12:56.467Z,94078.00
2023-04-29T17:15:23.468Z,94070.00
2023-04-29T17:17:51.355Z,94082.00
2023-04-29T17:20:18.643Z,94074.00
2023-04-29T17:22:47.874Z,94078.00
2023-04-29T17:25:18.023Z,94082.00
2023-04-29T17:27:46.120Z,94083.00
2023-04-29T17:30:13.484Z,94072.00
2023-04-29T17:32:44.417Z,94076.00
2023-04-29T17:35:11.663Z,94084.00
2023-04-29T17:37:45.650Z,94088.00
2023-04-29T17:40:12.699Z,94086.00
2023-04-29T17:42:39.773Z,94084.00
2023-04-29T17:45:09.956Z,94093.00
2023-04-29T17:47:39.550Z,94090.00
2023-04-29T17:50:07.297Z,94102.00
2023-04-29T17:52:34.222Z,94102.00
2023-04-29T17:55:01.311Z,94102.00
2023-04-29T17:57:33.053Z,94106.00
2023-04-29T18:00:03.139Z,94115.00
2023-04-29T18:02:30.536Z,94124.00
2023-04-29T18:05:02.142Z,94115.00
2023-04-29T18:07:29.024Z,94118.00
2023-04-29T18:09:56.211Z,94121.00
2023-04-29T18:12:24.147Z,94118.00
2023-04-29T18:14:53.613Z,94127.00
2023-04-29T18:17:20.665Z,94126.00
2023-04-29T18:19:54.118Z,94134.00
2023-04-29T18:22:21.245Z,94139.00
2023-04-29T18:24:49.454Z,94140.00
2023-04-29T18:27:18.506Z,94140.00
2023-04-29T18:29:45.829Z,94135.00
2023-04-29T18:32:17.198Z,94136.00
2023-04-29T18:34:44.189Z,94140.00
2023-04-29T18:37:14.428Z,94140.00
2023-04-29T18:39:41.400Z,94147.00
2023-04-29T18:42:08.681Z,94146.00
2023-04-29T18:44:35.688Z,94163.00
2023-04-29T18:47:05.093Z,94158.00
2023-04-29T18:49:32.299Z,94159.00
2023-04-29T18:52:01.461Z,94162.00
2023-04-29T18:54:31.426Z,94156.00
2023-04-29T18:56:58.758Z,94164.00
2023-04-29T18:59:30.634Z,94166.00
2023-04-29T19:02:01.000Z,94172.00
2023-04-29T19:04:30.658Z,94184.00
2023-04-29T19:07:00.674Z,94185.00
2023-04-29T19:09:32.701Z,94197.00
2023-04-29T19:12:01.453Z,94189.00
2023-04-29T19:14:32.953Z,94198.00
2023-04-29T19:17:00.164Z,94195.00
2023-04-29T19:19:30.341Z,94194.00
2023-04-29T19:22:05.253Z,94190.00
2023-04-29T19:24:37.140Z,94195.00
2023-04-29T19:27:04.173Z,94198.00
2023-04-29T19:29:33.234Z,94203.00
2023-04-29T19:32:00.150Z,94208.00
2023-04-29T19:34:34.485Z,94202.00
2023-04-29T19:37:01.647Z,94209.00
2023-04-29T19:39:28.937Z,94211.00
2023-04-29T19:41:58.626Z,94211.00
2023-04-29T19:44:25.567Z,94213.00
2023-04-29T19:46:53.709Z,94217.00
2023-04-29T19:49:23.138Z,94214.00
2023-04-29T19:51:51.647Z,94227.00
2023-04-29T19:54:20.850Z,94229.00
2023-04-29T19:56:47.720Z,94230.00
2023-04-29T19:59:16.881Z,94225.00
2023-04-29T20:01:46.750Z,94229.00
2023-04-29T20:04:13.771Z,94237.00
2023-04-29T20:06:40.928Z,94237.00
2023-04-29T20:09:09.434Z,94230.00
2023-04-29T20:11:36.570Z,94243.00
2023-04-29T20:14:03.769Z,94237.00
2023-04-29T20:16:32.176Z,94234.00
2023-04-29T20:19:03.686Z,94233.00
2023-04-29T20:21:30.531Z,94237.00
2023-04-29T20:23:59.682Z,94233.00
2023-04-29T20:26:28.866Z,94235.00
2023-04-29T20:28:59.760Z,94240.00
2023-04-29T20:31:26.700Z,94240.00
2023-04-29T20:33:53.777Z,94238.00
2023-04-29T20:36:23.304Z,94243.00
2023-04-29T20:38:50.200Z,94251.00
2023-04-29T20:41:17.096Z,94252.00
2023-04-29T20:43:46.225Z,94251.00
2023-04-29T20:46:16.744Z,94251.00
2023-04-29T20:48:46.115Z,94250.00
2023-04-29T20:51:13.573Z,94247.00
2023-04-29T20:53:40.731Z,94251.00
2023-04-29T20:56:10.614Z,94248.00
2023-04-29T20:58:37.695Z,94255.00
2023-04-29T21:01:07.174Z,94255.00
2023-04-29T21:03:38.053Z,94248.00
2023-04-29T21:06:05.310Z,94254.00
2023-04-29T21:08:34.482Z,94255.00
2023-04-29T21:11:01.677Z,94247.00
2023-04-29T21:13:28.627Z,94256.00
2023-04-29T21:15:55.631Z,94255.00
2023-04-29T21:18:22.619Z,94257.00
2023-04-29T21:20:49.657Z,94256.00
2023-04-29T21:23:19.025Z,94257.00
2023-04-29T21:25:45.921Z,94256.00
2023-04-29T21:28:16.950Z,94260.00
2023-04-29T21:30:48.720Z,94261.00
2023-04-29T21:33:20.267Z,94262.00
2023-04-29T21:35:51.521Z,94264.00
2023-04-29T21:38:18.926Z,94261.00
2023-04-29T21:40:47.758Z,94260.00
2023-04-29T21:43:18.498Z,94254.00
2023-04-29T21:45:48.077Z,94254.00
2023-04-29T21:48:18.058Z,94240.00
2023-04-29T21:50:45.614Z,94255.00
2023-04-29T21:53:16.123Z,94240.00
2023-04-29T21:55:46.549Z,94242.00
2023-04-29T21:58:13.579Z,94252.00
2023-04-29T22:00:51.198Z,94255.00
2023-04-29T22:03:18.294Z,94258.00
2023-04-29T22:05:45.180Z,94257.00
2023-04-29T22:08:16.652Z,94250.00
2023-04-29T22:10:43.700Z,94255.00
2023-04-29T22:13:13.209Z,94250.00
2023-04-29T22:15:42.387Z,94253.00
2023-04-29T22:18:11.754Z,94249.00
2023-04-29T22:20:38.967Z,94255.00
2023-04-29T22:23:10.346Z,94260.00
2023-04-29T22:25:37.257Z,94256.00
2023-04-29T22:28:04.451Z,94255.00
2023-04-29T22:30:36.136Z,94256.00
2023-04-29T22:33:07.703Z,94255.00
2023-04-29T22:35:39.450Z,94254.00
2023-04-29T22:38:06.324Z,94250.00
2023-04-29T22:40:37.103Z,94255.00
2023-04-29T22:43:04.204Z,94265.00
2023-04-29T22:45:31.948Z,94267.00
2023-04-29T22:47:58.877Z,94252.00
2023-04-29T22:50:28.290Z,94258.00
2023-04-29T22:52:57.462Z,94254.00
2023-04-29T22:55:24.324Z,94255.00
2023-04-29T22:57:51.891Z,94262.00
2023-04-29T23:00:18.799Z,94260.00
2023-04-29T23:02:45.796Z,94264.00
2023-04-29T23:05:15.118Z,94255.00
2023-04-29T23:07:44.216Z,94260.00
2023-04-29T23:10:11.186Z,94259.00
2023-04-29T23:12:38.042Z,94262.00
2023-04-29T23:15:07.675Z,94263.00
2023-04-29T23:17:37.454Z,94272.00
2023-04-29T23:20:07.660Z,94274.00
2023-04-29T23:22:37.127Z,94276.00
2023-04-29T23:25:06.806Z,94275.00
2023-04-29T23:27:33.683Z,94270.00
2023-04-29T23:30:00.585Z,94269.00
2023-04-29T23:32:27.588Z,94276.00
2023-04-29T23:34:54.465Z,94269.00
2023-04-29T23:37:23.767Z,94273.00
2023-04-29T23:39:51.953Z,94269.00
2023-04-29T23:42:19.056Z,94272.00
2023-04-29T23:44:50.921Z,94267.00
2023-04-29T23:47:21.279Z,94268.00
2023-04-29T23:49:50.413Z,94276.00
2023-04-29T23:52:17.301Z,94277.00
2023-04-29T23:54:44.162Z,94276.00
2023-04-29T23:57:11.532Z,94278.00
2023-04-29T23:59:38.393Z,94279.00
